Boston, Massachusetts
Traffic Map
Current Weather Conditions
Boston, Massachusetts
Few Clouds
Few Clouds
40°
Feels Like: 33°
Wind Chill: 33° Ceiling: Unl
Heat Index: 40° Visibility: 10mi
Dew Point: 26° Wind: 12mph
Humidity: 58% Direction: 300° (WNW)
Pressure: 30.25in Gusts: 0mph
Raw Report DataKBOS 210454Z 30010KT 10SM FEW085 04/M03 A3025 RMK AO2 SLP243 T00441033 401170022
Traffic Incident Summary
Active as of:
Severity:
Category:
InformationThere was an issue retrieving the traffic information for this location. Please try a different location or try again shortly.
Advertisements